Time;durP1;ratioP1;P1;durP2;ratioP2;P2;SDS_P1;SDS_P2;PMS_P1;PMS_P2;Temp;Humidity;BMP_temperature;BMP_pressure;BME280_temperature;BME280_humidity;BME280_pressure;Samples;Min_cycle;Max_cycle;Signal;HPM_P1;HPM_P2
2022/08/04 00:00:12;;;;;;;3.78;2.83;;;;;;;26.48;39.06;99540.06;5031128;28;20087;-78
2022/08/04 00:03:00;;;;;;;3.38;3.08;;;;;;;26.43;39.46;99523.84;5031275;28;20564;-78
2022/08/04 00:05:41;;;;;;;3.38;3.08;;;;;;;26.18;39.77;99500.47;5030009;28;20031;-78
2022/08/04 00:08:28;;;;;;;4.75;3.30;;;;;;;26.38;39.66;99531.22;5031238;28;20079;-78
2022/08/04 00:10:55;;;;;;;3.63;3.00;;;;;;;26.33;39.65;99529.34;5029895;28;20036;-78
2022/08/04 00:13:27;;;;;;;4.20;2.95;;;;;;;25.88;39.80;99470.88;5031042;28;20026;-78
2022/08/04 00:16:06;;;;;;;3.78;2.65;;;;;;;25.98;40.02;99490.56;5031351;28;20108;-78
2022/08/04 00:18:39;;;;;;;3.30;3.00;;;;;;;26.19;40.35;99531.84;5031086;28;20077;-78
2022/08/04 00:21:07;;;;;;;4.78;2.92;;;;;;;26.14;40.11;99526.47;5029764;28;20076;-78
2022/08/04 00:23:34;;;;;;;4.13;3.38;;;;;;;26.11;40.42;99543.25;5031071;28;20029;-78
2022/08/04 00:26:00;;;;;;;3.50;3.10;;;;;;;25.58;40.40;99482.63;5031241;28;20394;-77
2022/08/04 00:28:27;;;;;;;4.43;2.55;;;;;;;25.87;40.62;99524.16;5031166;28;20034;-77
2022/08/04 00:30:53;;;;;;;3.40;3.10;;;;;;;25.83;40.56;99557.47;5029795;28;20112;-77
2022/08/04 00:33:19;;;;;;;6.05;3.10;;;;;;;25.18;40.74;99457.38;5031069;28;20167;-77
2022/08/04 00:35:47;;;;;;;4.45;2.95;;;;;;;24.78;41.13;99411.56;5029833;28;20029;-77
2022/08/04 00:38:15;;;;;;;3.58;3.25;;;;;;;25.60;40.86;99542.66;5029716;28;20025;-77
2022/08/04 00:40:41;;;;;;;6.65;3.15;;;;;;;25.62;41.18;99535.88;5046108;28;20111;-77
2022/08/04 00:43:23;;;;;;;3.90;3.00;;;;;;;25.64;41.25;99539.13;5031144;28;20061;-77
2022/08/04 00:45:51;;;;;;;4.28;2.97;;;;;;;25.62;40.85;99545.91;5030963;28;20036;-77
2022/08/04 00:48:35;;;;;;;5.35;2.80;;;;;;;25.56;40.90;99550.50;5033133;28;20055;-77
2022/08/04 00:51:13;;;;;;;4.85;3.20;;;;;;;25.13;41.20;99500.63;5033053;28;20025;-77
2022/08/04 00:53:47;;;;;;;6.57;3.10;;;;;;;25.37;41.37;99537.88;5034528;28;20090;-77
2022/08/04 00:56:29;;;;;;;4.18;3.17;;;;;;;25.26;41.49;99542.47;5034530;28;20079;-77
2022/08/04 00:59:19;;;;;;;3.40;3.10;;;;;;;25.14;41.77;99542.78;5034389;28;20053;-77
2022/08/04 01:01:59;;;;;;;4.22;2.80;;;;;;;25.14;41.67;99542.78;5032846;28;20486;-77
2022/08/04 01:04:48;;;;;;;4.40;2.83;;;;;;;25.07;41.82;99539.53;5034547;28;20036;-77
2022/08/04 01:07:35;;;;;;;3.25;2.60;;;;;;;25.03;41.95;99527.66;5034387;28;20578;-77
2022/08/04 01:10:16;;;;;;;3.88;2.90;;;;;;;25.01;41.92;99529.84;5032727;28;20036;-78
2022/08/04 01:12:53;;;;;;;3.08;2.78;;;;;;;25.02;41.95;99531.44;5034250;28;20026;-78
2022/08/04 01:15:33;;;;;;;6.30;3.00;;;;;;;25.04;41.73;99537.38;5034396;28;20497;-77
2022/08/04 01:18:05;;;;;;;4.47;3.30;;;;;;;24.98;41.98;99539.28;5032814;28;20049;-78
2022/08/04 01:21:15;;;;;;;3.83;3.30;;;;;;;24.76;42.13;99524.44;5034139;28;20049;-78
2022/08/04 01:24:03;;;;;;;5.10;2.92;;;;;;;24.74;42.21;99543.59;5032743;28;20435;-78
2022/08/04 01:26:42;;;;;;;4.30;2.80;;;;;;;24.68;42.83;99558.19;5032677;28;20133;-78
2022/08/04 01:29:13;;;;;;;3.72;3.10;;;;;;;24.40;42.62;99517.13;5034216;28;20032;-78
2022/08/04 01:32:02;;;;;;;6.93;3.53;;;;;;;24.60;42.99;99554.13;5033906;28;20108;-78
2022/08/04 01:34:30;;;;;;;4.32;2.88;;;;;;;24.64;42.56;99557.09;5032315;28;20031;-78
2022/08/04 01:36:55;;;;;;;3.45;3.15;;;;;;;24.61;42.64;99563.03;5032315;28;20025;-78
2022/08/04 01:42:05;;;;;;;4.63;3.33;;;;;;;24.53;42.97;99552.78;5033687;28;20048;-78
2022/08/04 01:44:34;;;;;;;4.38;3.30;;;;;;;24.44;42.76;99535.47;5033360;28;20426;-78
2022/08/04 01:47:01;;;;;;;4.43;2.92;;;;;;;24.18;43.01;99500.34;5032189;28;20029;-78
2022/08/04 01:49:31;;;;;;;3.10;2.88;;;;;;;24.42;43.23;99543.84;5033631;28;20026;-78
2022/08/04 01:51:56;;;;;;;4.78;3.33;;;;;;;24.03;43.24;99487.66;5033552;28;20025;-78
2022/08/04 01:54:23;;;;;;;5.53;3.22;;;;;;;24.38;43.09;99540.06;5032176;28;20037;-78
2022/08/04 01:56:49;;;;;;;4.57;3.47;;;;;;;24.40;43.08;99546.00;5033348;28;20083;-78
2022/08/04 01:59:18;;;;;;;6.57;3.30;;;;;;;23.79;43.33;99450.66;5030937;28;20021;-78
2022/08/04 02:01:44;;;;;;;6.20;3.15;;;;;;;23.80;43.53;99460.38;5033636;28;20028;-78
2022/08/04 02:04:17;;;;;;;3.63;3.33;;;;;;;24.27;43.44;99549.22;5033376;28;20068;-78
2022/08/04 02:06:54;;;;;;;4.13;3.33;;;;;;;24.12;43.95;99549.16;5033105;28;20029;-78
2022/08/04 02:09:42;;;;;;;4.22;2.90;;;;;;;23.53;44.07;99464.00;5033225;28;20040;-78
2022/08/04 02:12:24;;;;;;;5.45;3.35;;;;;;;23.66;44.47;99500.47;5033032;28;20079;-78
2022/08/04 02:14:58;;;;;;;5.35;3.47;;;;;;;23.94;44.23;99543.19;5032985;28;20075;-78
2022/08/04 02:17:56;;;;;;;5.53;3.55;;;;;;;23.93;44.37;99546.97;5031472;28;20103;-78
2022/08/04 02:20:31;;;;;;;3.13;2.90;;;;;;;23.79;44.76;99550.41;5021155;28;20470;-78
2022/08/04 02:23:05;;;;;;;5.50;3.55;;;;;;;23.66;45.00;99546.31;5031603;28;20076;-78
2022/08/04 02:26:04;;;;;;;5.32;3.72;;;;;;;23.67;44.91;99547.91;5032983;28;20031;-78
2022/08/04 02:28:47;;;;;;;3.80;3.30;;;;;;;23.51;45.22;99524.63;5032917;28;20805;-78
2022/08/04 02:31:43;;;;;;;4.03;3.25;;;;;;;23.62;45.31;99550.59;5032785;28;20060;-78
2022/08/04 02:34:39;;;;;;;3.85;3.53;;;;;;;23.04;45.09;99452.75;5032779;28;20040;-78
2022/08/04 02:37:05;;;;;;;8.65;4.28;;;;;;;23.52;45.27;99553.22;5031300;28;20025;-78
2022/08/04 02:39:34;;;;;;;7.55;4.60;;;;;;;23.52;45.32;99561.28;5033049;28;20107;-78
2022/08/04 02:42:02;;;;;;;4.10;3.67;;;;;;;23.51;45.36;99565.06;5032557;28;20021;-78
2022/08/04 02:44:29;;;;;;;6.63;4.20;;;;;;;23.46;45.46;99555.88;5031275;28;20021;-78
2022/08/04 02:46:55;;;;;;;3.80;3.50;;;;;;;23.08;45.35;99491.56;5032690;28;20035;-78
2022/08/04 02:49:22;;;;;;;3.90;3.50;;;;;;;23.38;45.49;99544.78;5032480;28;20418;-78
2022/08/04 02:51:57;;;;;;;5.78;3.58;;;;;;;23.53;45.67;99569.13;5032363;28;20029;-78
2022/08/04 02:54:33;;;;;;;4.00;3.45;;;;;;;23.22;45.54;99518.84;5032300;28;20029;-78
2022/08/04 02:56:59;;;;;;;4.57;4.07;;;;;;;23.42;45.68;99548.59;5032182;28;20032;-78
2022/08/04 02:59:26;;;;;;;5.03;3.83;;;;;;;23.21;45.80;99523.41;5032334;28;20026;-78
2022/08/04 03:01:54;;;;;;;5.53;3.60;;;;;;;22.92;45.83;99489.81;5030877;28;20033;-78
2022/08/04 03:04:26;;;;;;;4.10;3.60;;;;;;;23.39;46.20;99567.97;5032236;28;20025;-78
2022/08/04 03:07:09;;;;;;;6.20;3.53;;;;;;;23.37;46.09;99565.53;5031830;28;20486;-78
2022/08/04 03:09:41;;;;;;;4.63;3.65;;;;;;;23.34;46.24;99566.06;5030738;28;20033;-78
2022/08/04 03:12:29;;;;;;;4.30;3.88;;;;;;;23.30;46.21;99570.34;5030398;28;20040;-78
2022/08/04 03:15:04;;;;;;;4.85;3.60;;;;;;;23.27;46.38;99570.88;5032115;28;20144;-78
2022/08/04 03:17:53;;;;;;;5.78;3.90;;;;;;;23.26;46.39;99571.13;5031903;28;20049;-78
2022/08/04 03:20:30;;;;;;;3.72;3.38;;;;;;;23.23;46.63;99575.16;5032001;28;20399;-78
2022/08/04 03:23:28;;;;;;;4.88;3.97;;;;;;;23.14;46.70;99577.53;5030623;28;20041;-78
2022/08/04 03:26:18;;;;;;;4.85;3.85;;;;;;;23.09;46.91;99582.88;5031816;28;20438;-78
2022/08/04 03:28:46;;;;;;;5.05;3.40;;;;;;;22.98;46.99;99588.41;5031749;28;20037;-78
2022/08/04 03:31:14;;;;;;;4.93;3.90;;;;;;;22.92;47.35;99582.19;5031513;28;20457;-78
2022/08/04 03:33:45;;;;;;;7.93;4.22;;;;;;;22.90;47.20;99580.81;5031421;28;20029;-78
2022/08/04 03:36:46;;;;;;;6.05;4.03;;;;;;;22.84;47.33;99582.66;5031498;28;20029;-78
2022/08/04 03:39:36;;;;;;;4.65;4.13;;;;;;;22.70;47.27;99571.47;5031568;28;20037;-77
2022/08/04 03:42:19;;;;;;;4.40;4.00;;;;;;;22.74;47.45;99583.34;5031713;28;20056;-78
2022/08/04 03:45:06;;;;;;;6.60;4.32;;;;;;;22.74;47.64;99587.94;5031423;28;20029;-78
2022/08/04 03:47:44;;;;;;;6.53;4.47;;;;;;;22.75;47.63;99578.78;5031293;28;20032;-77
2022/08/04 03:50:15;;;;;;;6.13;3.67;;;;;;;;;;5031337;28;20103;-77
2022/08/04 03:53:10;;;;;;;3.97;3.58;;;;;;;22.86;47.62;99582.41;5031564;28;20541;-77
2022/08/04 03:56:03;;;;;;;4.55;4.15;;;;;;;22.85;47.63;99584.28;5030061;28;20030;-77
2022/08/04 03:58:46;;;;;;;7.07;4.88;;;;;;;22.85;47.46;99583.47;5031277;28;20395;-77
2022/08/04 04:01:27;;;;;;;8.68;4.18;;;;;;;22.82;47.45;99577.53;5031178;28;20147;-77
2022/08/04 04:03:58;;;;;;;6.13;4.20;;;;;;;22.84;47.30;99585.34;5031326;28;20087;-77
2022/08/04 04:06:45;;;;;;;5.72;4.30;;;;;;;22.88;47.27;99583.78;5031253;28;20112;-77
2022/08/04 04:09:29;;;;;;;6.10;4.18;;;;;;;22.91;47.25;99577.06;5031186;28;20060;-77
2022/08/04 04:11:57;;;;;;;8.02;4.47;;;;;;;23.00;46.91;99575.50;5031326;28;20025;-77
2022/08/04 04:14:58;;;;;;;4.45;4.05;;;;;;;22.63;47.05;99511.69;5031352;28;20028;-77
2022/08/04 04:18:02;;;;;;;5.97;4.53;;;;;;;23.02;47.22;99576.88;5031200;28;20514;-77
2022/08/04 04:20:57;;;;;;;4.88;4.47;;;;;;;23.07;47.33;99592.28;5027895;28;20116;-77
2022/08/04 04:23:32;;;;;;;4.82;4.38;;;;;;;23.14;47.07;99584.78;5033661;28;20032;-77
2022/08/04 04:26:03;;;;;;;7.03;4.40;;;;;;;23.21;46.91;99585.38;5035272;28;20490;-78
2022/08/04 04:28:46;;;;;;;6.93;4.28;;;;;;;23.28;47.00;99591.34;5035239;28;20063;-78
2022/08/04 04:31:32;;;;;;;4.80;4.35;;;;;;;23.32;47.17;99595.16;5034828;28;20066;-78
2022/08/04 04:34:23;;;;;;;6.80;4.35;;;;;;;23.26;46.85;99585.41;5034944;28;20021;-78
2022/08/04 04:37:00;;;;;;;9.15;4.50;;;;;;;23.35;46.97;99589.25;5033482;28;20547;-78
2022/08/04 04:39:47;;;;;;;10.20;4.82;;;;;;;23.40;47.20;99599.22;5034842;28;20111;-78
2022/08/04 04:42:51;;;;;;;6.03;4.47;;;;;;;23.41;47.12;99609.75;5033547;28;20018;-78
2022/08/04 04:45:23;;;;;;;9.13;4.70;;;;;;;23.48;47.13;99603.31;5026515;28;20048;-78
2022/08/04 04:47:55;;;;;;;5.93;4.78;;;;;;;23.54;47.13;99600.38;5034749;28;20116;-78
2022/08/04 04:50:35;;;;;;;7.10;4.60;;;;;;;23.60;47.52;99598.56;5034644;28;20111;-77
2022/08/04 04:53:26;;;;;;;5.50;4.90;;;;;;;23.62;47.64;99597.22;5034904;28;20487;-77
2022/08/04 04:56:13;;;;;;;8.68;4.85;;;;;;;23.70;47.09;99593.22;5034622;28;20104;-77
2022/08/04 04:58:40;;;;;;;6.90;4.50;;;;;;;23.61;47.02;99567.84;5034457;28;20460;-77
2022/08/04 05:01:05;;;;;;;5.20;4.70;;;;;;;23.87;47.29;99590.34;5034416;28;20460;-77
2022/08/04 05:03:59;;;;;;;6.60;4.63;;;;;;;23.92;47.16;99598.47;5034474;28;20112;-77
2022/08/04 05:06:48;;;;;;;5.95;4.43;;;;;;;23.99;47.25;99597.13;5017750;28;20450;-77
2022/08/04 05:09:28;;;;;;;4.93;4.18;;;;;;;24.04;47.08;99602.56;5032992;28;20030;-77
2022/08/04 05:11:59;;;;;;;5.83;4.83;;;;;;;24.05;47.36;99603.38;5034116;28;20105;-77
2022/08/04 05:14:35;;;;;;;7.47;4.78;;;;;;;24.05;47.40;99601.47;5034025;28;20036;-77
2022/08/04 05:17:08;;;;;;;9.57;4.80;;;;;;;24.08;47.59;99592.84;5032554;28;20438;-77
2022/08/04 05:19:49;;;;;;;9.77;4.70;;;;;;;24.18;47.54;99602.88;5034081;28;20030;-78
2022/08/04 05:22:27;;;;;;;8.18;4.30;;;;;;;24.28;47.23;99596.72;5033999;28;20469;-78
2022/08/04 05:25:00;;;;;;;6.35;4.05;;;;;;;24.34;47.31;99579.47;5033898;28;20026;-78
2022/08/04 05:27:33;;;;;;;7.03;4.20;;;;;;;24.34;47.19;99561.38;5033843;28;20033;-78
2022/08/04 05:30:03;;;;;;;6.85;4.30;;;;;;;24.39;47.26;99561.38;5032656;28;20030;-78
2022/08/04 05:32:42;;;;;;;8.00;4.10;;;;;;;24.57;47.50;99564.66;5033758;28;20514;-78
2022/08/04 05:35:24;;;;;;;6.82;3.72;;;;;;;24.39;47.04;99529.00;5033490;28;20026;-78
2022/08/04 05:37:52;;;;;;;4.70;3.42;;;;;;;24.92;46.58;99590.84;5033778;28;20044;-78
2022/08/04 05:40:18;;;;;;;5.75;3.28;;;;;;;24.91;46.89;99581.94;5033562;28;20032;-78
2022/08/04 05:42:44;;;;;;;5.68;3.35;;;;;;;24.78;46.53;99546.56;5033604;28;20021;-78
2022/08/04 05:45:10;;;;;;;4.88;3.25;;;;;;;24.63;46.35;99521.19;5033662;28;20049;-78
2022/08/04 05:47:35;;;;;;;4.38;2.97;;;;;;;24.69;46.32;99539.03;5033622;28;20029;-77
2022/08/04 05:50:03;;;;;;;3.55;3.25;;;;;;;25.02;46.37;99577.38;5032720;28;20087;-77
2022/08/04 05:52:35;;;;;;;3.28;2.97;;;;;;;25.23;46.55;99595.19;5031952;28;20040;-77
2022/08/04 05:55:01;;;;;;;4.05;2.72;;;;;;;25.30;46.28;99609.25;5033412;28;20056;-78
2022/08/04 05:57:27;;;;;;;3.97;3.47;;;;;;;25.27;45.92;99588.16;5033248;28;20040;-78
2022/08/04 05:59:54;;;;;;;4.82;3.30;;;;;;;25.39;46.01;99603.28;5031997;28;20041;-77
2022/08/04 06:02:22;;;;;;;4.78;3.35;;;;;;;25.05;45.77;99551.72;5032356;28;20029;-77
2022/08/04 06:04:49;;;;;;;5.88;4.32;;;;;;;25.15;45.78;99566.00;5033115;28;20030;-77
2022/08/04 06:07:15;;;;;;;4.65;3.75;;;;;;;25.44;45.65;99593.25;5032957;28;20029;-77
2022/08/04 06:09:41;;;;;;;4.75;3.35;;;;;;;25.58;45.06;99601.59;5031670;28;20469;-76
2022/08/04 06:12:13;;;;;;;4.55;3.20;;;;;;;25.43;44.86;99571.91;5032895;28;20033;-76
2022/08/04 06:14:41;;;;;;;4.30;3.83;;;;;;;25.29;44.42;99545.47;5032193;28;20057;-76
2022/08/04 06:17:10;;;;;;;5.65;4.50;;;;;;;25.17;44.61;99509.78;5032596;28;20053;-75
2022/08/04 06:19:38;;;;;;;6.07;5.35;;;;;;;25.62;44.24;99572.94;5032669;28;20032;-75
2022/08/04 06:22:07;;;;;;;6.60;4.88;;;;;;;25.85;44.07;99583.16;5032296;28;20025;-75
2022/08/04 06:24:35;;;;;;;6.63;4.45;;;;;;;25.82;44.11;99570.19;5032315;28;20029;-75
2022/08/04 06:27:03;;;;;;;5.78;4.57;;;;;;;26.07;43.91;99593.63;5031215;28;20021;-75
2022/08/04 06:29:36;;;;;;;5.18;4.22;;;;;;;26.02;43.97;99577.41;5031237;28;20080;-76
2022/08/04 06:32:23;;;;;;;5.43;4.93;;;;;;;25.86;43.56;99551.50;5032231;28;20030;-76
2022/08/04 06:34:53;;;;;;;6.28;5.38;;;;;;;26.18;43.39;99586.25;5031983;28;20036;-75
2022/08/04 06:37:20;;;;;;;4.65;3.95;;;;;;;25.82;43.17;99534.19;5032221;28;20033;-76
2022/08/04 06:39:46;;;;;;;5.55;5.05;;;;;;;26.22;43.11;99587.31;5031189;28;20132;-76
2022/08/04 06:42:11;;;;;;;7.90;4.70;;;;;;;26.30;42.88;99592.13;5032044;28;20053;-75
2022/08/04 06:44:39;;;;;;;4.22;3.83;;;;;;;26.32;42.60;99591.84;5031280;28;20399;-75
2022/08/04 06:47:05;;;;;;;3.85;3.55;;;;;;;26.39;42.46;99586.97;5031658;28;20028;-75
2022/08/04 06:49:32;;;;;;;5.85;4.05;;;;;;;26.29;42.18;99558.84;5030916;28;20029;-76
2022/08/04 06:52:01;;;;;;;4.38;3.97;;;;;;;26.18;42.11;99546.47;5031971;28;20036;-75
2022/08/04 06:54:27;;;;;;;3.92;3.58;;;;;;;26.54;41.94;99590.38;5031201;28;20033;-75
2022/08/04 06:56:57;;;;;;;4.43;3.78;;;;;;;26.03;41.86;99486.22;5031190;28;20490;-76
2022/08/04 06:59:23;;;;;;;4.18;3.75;;;;;;;26.60;41.40;99575.72;5031956;28;20029;-76
2022/08/04 07:01:50;;;;;;;5.82;5.07;;;;;;;26.69;41.51;99588.66;5031783;28;20030;-75
2022/08/04 07:04:16;;;;;;;5.25;4.82;;;;;;;26.84;41.28;99588.56;5031765;28;20039;-75
2022/08/04 07:06:42;;;;;;;4.45;3.97;;;;;;;26.86;41.07;99583.66;5031531;28;20047;-76
2022/08/04 07:09:07;;;;;;;8.52;3.70;;;;;;;26.92;40.81;99577.09;5031609;28;20049;-76
2022/08/04 07:11:33;;;;;;;3.88;3.58;;;;;;;27.11;40.39;99586.16;5030739;28;20112;-76
2022/08/04 07:13:59;;;;;;;3.72;3.42;;;;;;;27.10;40.31;99575.59;5031715;28;20041;-76
2022/08/04 07:16:24;;;;;;;4.10;3.70;;;;;;;27.05;40.01;99541.22;5031510;28;20515;-76
2022/08/04 07:18:50;;;;;;;3.90;3.60;;;;;;;27.44;39.50;99589.09;5026775;28;20029;-75
2022/08/04 07:21:22;;;;;;;4.10;3.70;;;;;;;27.42;39.19;99581.22;5028199;28;20418;-76
2022/08/04 07:23:49;;;;;;;4.30;3.90;;;;;;;27.56;39.27;99591.44;5026220;28;20033;-76
2022/08/04 07:26:17;;;;;;;9.65;7.25;;;;;;;27.66;39.05;99588.63;5020025;28;20032;-76
2022/08/04 07:28:43;;;;;;;4.88;4.43;;;;;;;27.62;39.05;99574.84;5031541;28;20428;-76
2022/08/04 07:31:12;;;;;;;4.75;3.63;;;;;;;27.76;38.66;99581.16;5031444;28;20033;-76
2022/08/04 07:33:40;;;;;;;5.50;4.47;;;;;;;27.65;38.60;99549.03;5030368;28;20052;-76
2022/08/04 07:36:05;;;;;;;4.20;3.60;;;;;;;27.84;38.33;99574.28;5029734;28;20091;-76
2022/08/04 07:38:31;;;;;;;4.10;3.55;;;;;;;27.66;38.16;99539.78;5031471;28;20502;-75
2022/08/04 07:40:57;;;;;;;4.15;3.70;;;;;;;27.87;37.99;99568.28;5031409;28;20135;-76
2022/08/04 07:43:23;;;;;;;4.88;4.45;;;;;;;28.02;38.14;99575.41;5029585;28;20076;-75
2022/08/04 07:45:49;;;;;;;4.95;4.05;;;;;;;27.69;38.05;99514.78;5028422;28;20032;-76
2022/08/04 07:48:17;;;;;;;5.78;4.35;;;;;;;28.16;38.12;99573.59;5029229;28;20030;-75
2022/08/04 07:50:44;;;;;;;5.60;3.67;;;;;;;28.06;37.96;99541.16;5029897;28;20106;-75
2022/08/04 07:53:11;;;;;;;8.00;5.70;;;;;;;28.29;37.64;99578.34;5027893;28;20037;-76
2022/08/04 07:55:37;;;;;;;4.00;3.50;;;;;;;27.93;37.42;99493.84;5030348;28;20036;-76
2022/08/04 07:58:03;;;;;;;4.75;3.70;;;;;;;28.13;37.61;99523.41;5030885;28;20025;-76
2022/08/04 08:00:28;;;;;;;7.03;4.00;;;;;;;28.23;37.11;99530.63;5030743;28;20108;-76
2022/08/04 08:02:55;;;;;;;4.05;3.50;;;;;;;28.58;36.84;99569.22;5030706;28;20027;-76
2022/08/04 08:05:21;;;;;;;3.90;3.55;;;;;;;28.67;36.82;99567.44;5030842;28;20111;-76
2022/08/04 08:07:48;;;;;;;8.45;7.65;;;;;;;28.83;36.74;99567.97;5027907;28;20057;-76
2022/08/04 08:10:14;;;;;;;5.85;3.88;;;;;;;28.94;36.10;99566.72;5029074;28;20028;-76
2022/08/04 08:12:41;;;;;;;5.60;3.42;;;;;;;28.84;35.90;99556.84;5029594;28;20104;-76
2022/08/04 08:15:08;;;;;;;5.10;3.47;;;;;;;28.80;35.82;99540.31;5029021;28;20033;-76
2022/08/04 08:17:34;;;;;;;3.85;3.42;;;;;;;29.09;35.92;99552.91;5030742;28;20073;-76
2022/08/04 08:20:00;;;;;;;4.05;3.53;;;;;;;29.20;35.46;99556.22;5029991;28;20029;-76
2022/08/04 08:22:26;;;;;;;4.45;3.65;;;;;;;28.94;35.57;99498.78;5030807;28;20021;-76
2022/08/04 08:24:51;;;;;;;3.70;2.90;;;;;;;29.03;35.03;99500.53;5030878;28;20087;-76
2022/08/04 08:27:17;;;;;;;15.75;14.40;;;;;;;29.13;35.34;99496.81;5030599;28;20469;-76
2022/08/04 08:29:44;;;;;;;5.80;5.30;;;;;;;29.64;34.67;99558.38;5030365;28;20040;-76
2022/08/04 08:32:12;;;;;;;5.97;5.38;;;;;;;29.39;34.30;99516.16;5030458;28;20201;-76
2022/08/04 08:34:39;;;;;;;4.32;3.35;;;;;;;29.57;33.95;99530.78;5030831;28;20430;-76
2022/08/04 08:37:32;;;;;;;6.38;4.82;;;;;;;29.84;34.25;99551.75;5030957;28;20060;-76
2022/08/04 08:40:03;;;;;;;4.55;3.13;;;;;;;29.95;34.17;99548.50;5028761;28;20061;-76
2022/08/04 08:43:03;;;;;;;6.95;5.93;;;;;;;30.11;33.99;99543.53;5030794;28;20406;-76
2022/08/04 08:45:59;;;;;;;5.60;3.15;;;;;;;30.10;33.49;99544.66;5007486;28;20045;-76
2022/08/04 08:48:35;;;;;;;3.50;3.20;;;;;;;30.16;33.05;99539.88;5028775;28;20399;-76
2022/08/04 08:51:20;;;;;;;4.03;3.35;;;;;;;30.34;33.26;99547.91;5029425;28;20033;-76
2022/08/04 08:54:20;;;;;;;4.75;4.40;;;;;;;30.45;32.86;99536.75;5028772;28;20034;-76
2022/08/04 08:57:04;;;;;;;4.70;3.63;;;;;;;30.65;32.40;99542.56;5029755;28;20521;-76
2022/08/04 08:59:58;;;;;;;4.78;3.70;;;;;;;30.79;32.25;99530.78;5030670;28;20033;-76
2022/08/04 09:02:44;;;;;;;3.47;3.00;;;;;;;30.88;31.69;99524.25;5030737;28;20021;-76
2022/08/04 09:05:13;;;;;;;5.75;4.90;;;;;;;31.00;31.49;99537.31;5030341;28;20021;-76
2022/08/04 09:08:04;;;;;;;5.45;4.18;;;;;;;31.13;31.23;99528.22;5029636;28;20033;-76
2022/08/04 09:10:42;;;;;;;6.03;4.60;;;;;;;31.28;31.17;99530.59;5021777;28;20477;-76
2022/08/04 09:13:18;;;;;;;4.93;3.72;;;;;;;31.39;31.28;99530.31;5033391;28;20045;-76
2022/08/04 09:16:06;;;;;;;4.40;3.60;;;;;;;31.54;30.85;99530.66;5033809;28;20164;-76
2022/08/04 09:18:53;;;;;;;4.80;3.40;;;;;;;31.67;30.14;99512.56;5034087;28;20483;-76
2022/08/04 09:21:24;;;;;;;6.00;4.50;;;;;;;31.88;30.08;99510.03;5031805;28;20398;-76
2022/08/04 09:24:07;;;;;;;5.03;4.00;;;;;;;32.11;29.72;99521.66;5033245;28;20056;-76
2022/08/04 09:26:35;;;;;;;4.00;3.58;;;;;;;32.33;29.17;99513.31;5033092;28;20040;-77
2022/08/04 09:29:18;;;;;;;5.18;4.45;;;;;;;32.55;28.55;99509.59;5029496;28;20522;-76
2022/08/04 09:32:02;;;;;;;3.88;3.28;;;;;;;32.71;28.00;99493.50;5030729;28;20025;-76
2022/08/04 09:35:12;;;;;;;6.80;4.97;;;;;;;32.97;28.04;99510.66;5032879;28;20064;-77
2022/08/04 09:38:02;;;;;;;4.85;3.50;;;;;;;33.11;28.30;99502.22;5028901;28;20501;-76
2022/08/04 09:40:46;;;;;;;3.75;3.35;;;;;;;33.25;26.88;99493.78;5033513;28;20033;-76
2022/08/04 09:43:29;;;;;;;3.92;3.63;;;;;;;33.35;26.97;99494.25;5023599;28;20021;-76
2022/08/04 09:46:13;;;;;;;7.50;4.88;;;;;;;33.60;27.72;99500.72;5026211;28;20026;-76
2022/08/04 09:48:51;;;;;;;5.88;4.78;;;;;;;33.39;26.39;99489.72;5031726;28;20028;-76
2022/08/04 09:51:41;;;;;;;9.52;4.70;;;;;;;33.60;26.68;99505.41;5033445;28;20121;-77
2022/08/04 09:54:15;;;;;;;5.53;3.08;;;;;;;33.58;26.56;99475.63;5032718;28;20417;-76
2022/08/04 09:56:56;;;;;;;4.78;2.60;;;;;;;33.67;26.05;99456.38;5030706;28;20045;-77
2022/08/04 10:00:02;;;;;;;5.78;4.90;;;;;;;34.19;25.08;99478.72;5032971;28;20026;-76
2022/08/04 10:02:33;;;;;;;8.05;5.78;;;;;;;34.25;25.49;99487.53;5023636;28;20030;-76
2022/08/04 10:05:05;;;;;;;6.43;4.95;;;;;;;34.49;25.14;99471.22;5032994;28;20064;-76
2022/08/04 10:07:55;;;;;;;5.10;4.70;;;;;;;34.91;24.81;99493.03;5032396;28;20045;-76
2022/08/04 10:10:30;;;;;;;6.30;5.00;;;;;;;35.15;24.43;99487.59;5032942;28;20414;-76
2022/08/04 10:13:20;;;;;;;6.13;4.15;;;;;;;35.18;23.44;99489.66;5030106;28;20166;-76
2022/08/04 10:15:59;;;;;;;12.30;3.53;;;;;;;35.46;23.88;99480.72;5026321;28;20063;-77
2022/08/04 10:18:47;;;;;;;4.47;3.65;;;;;;;35.66;23.09;99485.28;5015488;28;20308;-77
2022/08/04 10:21:18;;;;;;;5.88;3.00;;;;;;;35.79;23.31;99484.13;5011976;28;20033;-76
2022/08/04 10:24:17;;;;;;;3.25;2.35;;;;;;;35.92;21.88;99474.72;5027673;28;20033;-76
2022/08/04 10:26:52;;;;;;;4.53;2.70;;;;;;;35.70;22.60;99466.19;5032664;28;20398;-76
2022/08/04 10:29:26;;;;;;;6.28;3.75;;;;;;;35.96;21.79;99483.06;5032768;28;20036;-76
2022/08/04 10:32:03;;;;;;;3.42;3.20;;;;;;;36.09;22.11;99470.88;5026814;28;20030;-76
2022/08/04 10:34:38;;;;;;;3.88;2.17;;;;;;;35.73;21.51;99386.63;5022583;28;20064;-76
2022/08/04 10:37:20;;;;;;;3.17;2.72;;;;;;;36.40;22.14;99470.19;5029431;28;20036;-76
2022/08/04 10:42:59;;;;;;;4.32;2.72;;;;;;;36.06;22.15;99459.78;5023205;28;20502;-76
2022/08/04 10:45:32;;;;;;;2.95;2.35;;;;;;;35.38;22.67;99451.47;5031406;28;20072;-76
2022/08/04 10:48:06;;;;;;;4.68;2.50;;;;;;;35.09;22.81;99457.97;5023316;28;20022;-76
2022/08/04 10:50:36;;;;;;;3.40;2.92;;;;;;;34.78;22.93;99425.53;5028212;28;20041;-76
2022/08/04 10:53:16;;;;;;;2.22;2.03;;;;;;;34.90;22.41;99396.19;5031391;28;20025;-76
2022/08/04 10:55:49;;;;;;;2.83;2.63;;;;;;;35.48;22.28;99415.28;5031887;28;20040;-76
2022/08/04 10:58:24;;;;;;;3.53;2.60;;;;;;;35.98;21.63;99442.31;5022140;28;20022;-76
2022/08/04 11:00:55;;;;;;;5.30;3.10;;;;;;;35.82;21.32;99384.56;5011599;28;20089;-76
2022/08/04 11:03:33;;;;;;;5.78;5.18;;;;;;;35.74;22.23;99451.41;5012057;28;20388;-76
2022/08/04 11:06:02;;;;;;;5.00;2.58;;;;;;;35.22;21.73;99440.34;5011695;28;20546;-76
2022/08/04 11:08:42;;;;;;;3.78;2.50;;;;;;;34.76;22.10;99375.72;5009116;28;20038;-76
2022/08/04 11:11:29;;;;;;;4.20;2.60;;;;;;;35.24;21.46;99446.28;5014821;28;20429;-76
2022/08/04 11:14:02;;;;;;;5.10;2.58;;;;;;;35.58;20.22;99403.81;5029315;28;20399;-76
2022/08/04 11:16:43;;;;;;;3.45;2.80;;;;;;;35.90;20.31;99427.56;5028106;28;20077;-76
2022/08/04 11:19:36;;;;;;;3.30;2.22;;;;;;;35.84;20.06;99419.91;5028779;28;20506;-76
2022/08/04 11:22:07;;;;;;;3.20;2.40;;;;;;;36.19;20.74;99420.91;5027934;28;20505;-77
2022/08/04 11:25:00;;;;;;;3.80;2.60;;;;;;;36.56;19.63;99405.03;5028375;28;20442;-76
2022/08/04 11:27:34;;;;;;;2.92;2.60;;;;;;;36.72;19.83;99405.03;5028653;28;20072;-76
2022/08/04 11:29:59;;;;;;;2.45;2.25;;;;;;;36.60;19.61;99402.38;5021770;28;20164;-76
2022/08/04 11:32:51;;;;;;;4.70;4.30;;;;;;;36.82;19.72;99403.72;5025244;28;20116;-76
2022/08/04 11:35:35;;;;;;;3.72;3.33;;;;;;;37.26;19.97;99398.91;5025011;28;20102;-76
2022/08/04 11:38:10;;;;;;;5.70;4.32;;;;;;;37.38;19.46;99389.72;5031177;28;20026;-76
2022/08/04 11:40:42;;;;;;;3.90;3.38;;;;;;;37.08;19.95;99368.16;5031348;28;20409;-76
2022/08/04 11:43:37;;;;;;;4.20;3.72;;;;;;;36.55;20.50;99355.88;5029028;28;20504;-76
2022/08/04 11:46:11;;;;;;;3.50;2.97;;;;;;;36.03;21.03;99361.56;5025551;28;20041;-76
2022/08/04 11:48:55;;;;;;;4.30;3.78;;;;;;;35.61;20.79;99329.75;5025177;28;20025;-76
2022/08/04 11:51:23;;;;;;;3.10;2.90;;;;;;;36.38;20.74;99389.22;5030130;28;20052;-76
2022/08/04 11:53:49;;;;;;;3.28;3.00;;;;;;;36.66;20.39;99373.44;5026510;28;20032;-76
2022/08/04 11:56:15;;;;;;;3.30;2.70;;;;;;;36.94;19.92;99350.53;5029330;28;20525;-76
2022/08/04 11:58:42;;;;;;;3.53;3.22;;;;;;;37.21;19.66;99377.94;5027566;28;20040;-77
2022/08/04 12:01:22;;;;;;;5.97;5.07;;;;;;;36.77;19.47;99380.03;5028173;28;20075;-76
2022/08/04 12:04:07;;;;;;;3.90;3.40;;;;;;;36.34;19.90;99377.31;5028871;28;20018;-76
2022/08/04 12:07:01;;;;;;;5.20;4.70;;;;;;;35.78;20.90;99375.38;5030006;28;20029;-76
2022/08/04 12:09:51;;;;;;;4.88;3.70;;;;;;;35.19;21.92;99348.50;5026661;28;20066;-76
2022/08/04 12:13:01;;;;;;;3.72;3.10;;;;;;;35.24;21.65;99369.44;5021794;28;20028;-76
2022/08/04 12:15:31;;;;;;;2.92;2.47;;;;;;;35.09;21.77;99334.47;5026661;28;20041;-76
2022/08/04 12:18:37;;;;;;;4.47;3.13;;;;;;;35.11;20.68;99365.91;5026381;28;20128;-76
2022/08/04 12:21:10;;;;;;;3.63;3.33;;;;;;;34.55;21.99;99327.28;5020437;28;20033;-76